sensor_id;sensor_type;location;lat;lon;timestamp;P1;durP1;ratioP1;P2;durP2;ratioP2
12467;SDS011;57850;52.922;6.256;2023-04-01T00:02:21;9.98;;;7.72;;
12467;SDS011;57850;52.922;6.256;2023-04-01T00:04:48;8.60;;;7.68;;
12467;SDS011;57850;52.922;6.256;2023-04-01T00:07:15;9.65;;;6.97;;
12467;SDS011;57850;52.922;6.256;2023-04-01T00:09:41;7.93;;;6.70;;
12467;SDS011;57850;52.922;6.256;2023-04-01T00:12:08;7.63;;;6.78;;
12467;SDS011;57850;52.922;6.256;2023-04-01T00:14:34;8.68;;;6.90;;
12467;SDS011;57850;52.922;6.256;2023-04-01T00:17:03;9.18;;;6.90;;
12467;SDS011;57850;52.922;6.256;2023-04-01T00:19:30;6.57;;;5.95;;
12467;SDS011;57850;52.922;6.256;2023-04-01T00:21:57;7.13;;;6.20;;
12467;SDS011;57850;52.922;6.256;2023-04-01T00:24:24;6.38;;;5.68;;
12467;SDS011;57850;52.922;6.256;2023-04-01T00:26:51;6.70;;;5.65;;
12467;SDS011;57850;52.922;6.256;2023-04-01T00:29:18;9.30;;;6.03;;
12467;SDS011;57850;52.922;6.256;2023-04-01T00:31:44;6.05;;;5.50;;
12467;SDS011;57850;52.922;6.256;2023-04-01T00:34:13;6.35;;;5.72;;
12467;SDS011;57850;52.922;6.256;2023-04-01T00:36:39;7.10;;;6.13;;
12467;SDS011;57850;52.922;6.256;2023-04-01T00:39:06;6.57;;;5.82;;
12467;SDS011;57850;52.922;6.256;2023-04-01T00:41:32;5.93;;;5.25;;
12467;SDS011;57850;52.922;6.256;2023-04-01T00:44:14;8.05;;;5.32;;
12467;SDS011;57850;52.922;6.256;2023-04-01T00:46:43;6.57;;;5.70;;
12467;SDS011;57850;52.922;6.256;2023-04-01T00:49:10;6.88;;;5.93;;
12467;SDS011;57850;52.922;6.256;2023-04-01T00:51:38;7.03;;;5.57;;
12467;SDS011;57850;52.922;6.256;2023-04-01T00:54:07;6.47;;;5.68;;
12467;SDS011;57850;52.922;6.256;2023-04-01T00:56:36;7.88;;;6.47;;
12467;SDS011;57850;52.922;6.256;2023-04-01T00:59:08;6.78;;;5.93;;
12467;SDS011;57850;52.922;6.256;2023-04-01T01:01:37;6.65;;;5.82;;
12467;SDS011;57850;52.922;6.256;2023-04-01T01:04:04;6.90;;;5.88;;
12467;SDS011;57850;52.922;6.256;2023-04-01T01:06:35;7.40;;;5.90;;
12467;SDS011;57850;52.922;6.256;2023-04-01T01:09:14;7.75;;;5.90;;
12467;SDS011;57850;52.922;6.256;2023-04-01T01:11:52;7.50;;;5.97;;
12467;SDS011;57850;52.922;6.256;2023-04-01T01:14:25;6.50;;;5.85;;
12467;SDS011;57850;52.922;6.256;2023-04-01T01:17:06;7.35;;;5.78;;
12467;SDS011;57850;52.922;6.256;2023-04-01T01:19:46;6.78;;;6.03;;
12467;SDS011;57850;52.922;6.256;2023-04-01T01:22:45;7.82;;;5.88;;
12467;SDS011;57850;52.922;6.256;2023-04-01T01:25:29;6.15;;;5.32;;
12467;SDS011;57850;52.922;6.256;2023-04-01T01:28:12;7.38;;;5.65;;
12467;SDS011;57850;52.922;6.256;2023-04-01T01:30:52;7.53;;;6.10;;
12467;SDS011;57850;52.922;6.256;2023-04-01T01:33:27;6.18;;;5.57;;
12467;SDS011;57850;52.922;6.256;2023-04-01T01:36:07;9.38;;;5.63;;
12467;SDS011;57850;52.922;6.256;2023-04-01T01:38:39;6.07;;;5.30;;
12467;SDS011;57850;52.922;6.256;2023-04-01T01:41:06;6.53;;;5.63;;
12467;SDS011;57850;52.922;6.256;2023-04-01T01:43:36;7.72;;;5.38;;
12467;SDS011;57850;52.922;6.256;2023-04-01T01:46:07;8.95;;;5.50;;
12467;SDS011;57850;52.922;6.256;2023-04-01T01:48:36;5.93;;;5.35;;
12467;SDS011;57850;52.922;6.256;2023-04-01T01:51:05;7.20;;;5.07;;
12467;SDS011;57850;52.922;6.256;2023-04-01T01:53:33;6.15;;;5.43;;
12467;SDS011;57850;52.922;6.256;2023-04-01T01:56:00;5.95;;;4.20;;
12467;SDS011;57850;52.922;6.256;2023-04-01T01:58:27;4.10;;;3.75;;
12467;SDS011;57850;52.922;6.256;2023-04-01T02:00:58;5.22;;;4.20;;
12467;SDS011;57850;52.922;6.256;2023-04-01T02:03:27;4.10;;;3.70;;
12467;SDS011;57850;52.922;6.256;2023-04-01T02:05:57;4.55;;;3.90;;
12467;SDS011;57850;52.922;6.256;2023-04-01T02:08:29;6.13;;;3.70;;
12467;SDS011;57850;52.922;6.256;2023-04-01T02:11:00;4.18;;;3.78;;
12467;SDS011;57850;52.922;6.256;2023-04-01T02:13:29;4.55;;;4.00;;
12467;SDS011;57850;52.922;6.256;2023-04-01T02:16:01;4.00;;;3.60;;
12467;SDS011;57850;52.922;6.256;2023-04-01T02:18:32;4.00;;;3.60;;
12467;SDS011;57850;52.922;6.256;2023-04-01T02:21:02;3.38;;;3.08;;
12467;SDS011;57850;52.922;6.256;2023-04-01T02:23:33;3.90;;;3.10;;
12467;SDS011;57850;52.922;6.256;2023-04-01T02:26:02;4.05;;;3.67;;
12467;SDS011;57850;52.922;6.256;2023-04-01T02:28:31;3.60;;;3.30;;
12467;SDS011;57850;52.922;6.256;2023-04-01T02:30:59;3.53;;;3.20;;
12467;SDS011;57850;52.922;6.256;2023-04-01T02:33:27;4.05;;;3.33;;
12467;SDS011;57850;52.922;6.256;2023-04-01T02:35:55;3.35;;;2.90;;
12467;SDS011;57850;52.922;6.256;2023-04-01T02:38:21;3.30;;;3.00;;
12467;SDS011;57850;52.922;6.256;2023-04-01T02:40:50;3.60;;;2.80;;
12467;SDS011;57850;52.922;6.256;2023-04-01T02:43:22;2.97;;;2.60;;
12467;SDS011;57850;52.922;6.256;2023-04-01T02:45:49;3.60;;;2.40;;
12467;SDS011;57850;52.922;6.256;2023-04-01T02:48:15;3.47;;;2.65;;
12467;SDS011;57850;52.922;6.256;2023-04-01T02:50:42;2.58;;;2.38;;
12467;SDS011;57850;52.922;6.256;2023-04-01T02:53:08;2.78;;;2.45;;
12467;SDS011;57850;52.922;6.256;2023-04-01T02:55:35;2.92;;;2.65;;
12467;SDS011;57850;52.922;6.256;2023-04-01T02:58:03;3.20;;;2.72;;
12467;SDS011;57850;52.922;6.256;2023-04-01T03:00:30;3.78;;;2.70;;
12467;SDS011;57850;52.922;6.256;2023-04-01T03:02:56;3.90;;;2.90;;
12467;SDS011;57850;52.922;6.256;2023-04-01T03:05:23;4.72;;;2.80;;
12467;SDS011;57850;52.922;6.256;2023-04-01T03:07:50;3.92;;;2.80;;
12467;SDS011;57850;52.922;6.256;2023-04-01T03:10:19;4.97;;;3.00;;
12467;SDS011;57850;52.922;6.256;2023-04-01T03:12:46;3.35;;;3.03;;
12467;SDS011;57850;52.922;6.256;2023-04-01T03:15:14;5.57;;;3.45;;
12467;SDS011;57850;52.922;6.256;2023-04-01T03:17:41;3.35;;;3.05;;
12467;SDS011;57850;52.922;6.256;2023-04-01T03:20:08;3.55;;;3.05;;
12467;SDS011;57850;52.922;6.256;2023-04-01T03:22:37;3.40;;;3.10;;
12467;SDS011;57850;52.922;6.256;2023-04-01T03:25:04;3.38;;;3.08;;
12467;SDS011;57850;52.922;6.256;2023-04-01T03:27:32;3.47;;;3.17;;
12467;SDS011;57850;52.922;6.256;2023-04-01T03:29:59;4.50;;;4.05;;
12467;SDS011;57850;52.922;6.256;2023-04-01T03:32:27;4.05;;;3.65;;
12467;SDS011;57850;52.922;6.256;2023-04-01T03:34:53;4.70;;;4.00;;
12467;SDS011;57850;52.922;6.256;2023-04-01T03:37:20;4.20;;;3.80;;
12467;SDS011;57850;52.922;6.256;2023-04-01T03:39:47;6.32;;;4.10;;
12467;SDS011;57850;52.922;6.256;2023-04-01T03:42:14;4.18;;;3.78;;
12467;SDS011;57850;52.922;6.256;2023-04-01T03:44:40;5.72;;;3.97;;
12467;SDS011;57850;52.922;6.256;2023-04-01T03:47:07;4.82;;;4.15;;
12467;SDS011;57850;52.922;6.256;2023-04-01T03:49:35;5.00;;;4.50;;
12467;SDS011;57850;52.922;6.256;2023-04-01T03:52:02;5.07;;;4.20;;
12467;SDS011;57850;52.922;6.256;2023-04-01T03:54:28;5.28;;;4.78;;
12467;SDS011;57850;52.922;6.256;2023-04-01T03:56:55;4.68;;;4.13;;
12467;SDS011;57850;52.922;6.256;2023-04-01T03:59:22;5.10;;;4.55;;
12467;SDS011;57850;52.922;6.256;2023-04-01T04:01:49;5.95;;;4.25;;
12467;SDS011;57850;52.922;6.256;2023-04-01T04:04:16;4.65;;;4.25;;
12467;SDS011;57850;52.922;6.256;2023-04-01T04:06:44;3.90;;;3.60;;
12467;SDS011;57850;52.922;6.256;2023-04-01T04:09:10;4.25;;;3.85;;
12467;SDS011;57850;52.922;6.256;2023-04-01T04:11:37;4.35;;;3.95;;
12467;SDS011;57850;52.922;6.256;2023-04-01T04:14:03;3.95;;;3.55;;
12467;SDS011;57850;52.922;6.256;2023-04-01T04:16:30;4.72;;;4.03;;
12467;SDS011;57850;52.922;6.256;2023-04-01T04:18:56;5.60;;;4.13;;
12467;SDS011;57850;52.922;6.256;2023-04-01T04:21:23;6.82;;;4.45;;
12467;SDS011;57850;52.922;6.256;2023-04-01T04:23:51;4.60;;;3.78;;
12467;SDS011;57850;52.922;6.256;2023-04-01T04:26:17;4.78;;;4.28;;
12467;SDS011;57850;52.922;6.256;2023-04-01T04:28:44;5.97;;;4.15;;
12467;SDS011;57850;52.922;6.256;2023-04-01T04:31:11;4.30;;;3.75;;
12467;SDS011;57850;52.922;6.256;2023-04-01T04:33:38;4.68;;;4.18;;
12467;SDS011;57850;52.922;6.256;2023-04-01T04:36:05;4.07;;;3.40;;
12467;SDS011;57850;52.922;6.256;2023-04-01T04:38:32;3.75;;;3.08;;
12467;SDS011;57850;52.922;6.256;2023-04-01T04:41:00;3.50;;;3.20;;
12467;SDS011;57850;52.922;6.256;2023-04-01T04:43:26;3.58;;;3.28;;
12467;SDS011;57850;52.922;6.256;2023-04-01T04:45:53;4.25;;;3.30;;
12467;SDS011;57850;52.922;6.256;2023-04-01T04:48:20;4.43;;;3.40;;
12467;SDS011;57850;52.922;6.256;2023-04-01T04:50:46;4.57;;;3.40;;
12467;SDS011;57850;52.922;6.256;2023-04-01T04:53:14;3.78;;;3.35;;
12467;SDS011;57850;52.922;6.256;2023-04-01T04:55:44;3.80;;;3.50;;
12467;SDS011;57850;52.922;6.256;2023-04-01T04:58:13;5.15;;;3.88;;
12467;SDS011;57850;52.922;6.256;2023-04-01T05:00:40;4.35;;;3.50;;
12467;SDS011;57850;52.922;6.256;2023-04-01T05:03:06;4.47;;;3.80;;
12467;SDS011;57850;52.922;6.256;2023-04-01T05:05:33;4.45;;;3.95;;
12467;SDS011;57850;52.922;6.256;2023-04-01T05:07:59;5.75;;;4.10;;
12467;SDS011;57850;52.922;6.256;2023-04-01T05:10:26;5.13;;;4.28;;
12467;SDS011;57850;52.922;6.256;2023-04-01T05:12:53;5.22;;;4.18;;
12467;SDS011;57850;52.922;6.256;2023-04-01T05:15:21;4.75;;;3.85;;
12467;SDS011;57850;52.922;6.256;2023-04-01T05:17:48;6.47;;;4.63;;
12467;SDS011;57850;52.922;6.256;2023-04-01T05:20:14;4.95;;;4.45;;
12467;SDS011;57850;52.922;6.256;2023-04-01T05:22:41;6.60;;;5.03;;
12467;SDS011;57850;52.922;6.256;2023-04-01T05:25:08;8.68;;;5.57;;
12467;SDS011;57850;52.922;6.256;2023-04-01T05:27:35;7.47;;;5.03;;
12467;SDS011;57850;52.922;6.256;2023-04-01T05:30:02;7.38;;;4.95;;
12467;SDS011;57850;52.922;6.256;2023-04-01T05:32:31;6.20;;;5.07;;
12467;SDS011;57850;52.922;6.256;2023-04-01T05:34:58;6.85;;;5.53;;
12467;SDS011;57850;52.922;6.256;2023-04-01T05:37:25;8.15;;;5.78;;
12467;SDS011;57850;52.922;6.256;2023-04-01T05:39:51;6.55;;;5.57;;
12467;SDS011;57850;52.922;6.256;2023-04-01T05:42:18;7.65;;;5.93;;
12467;SDS011;57850;52.922;6.256;2023-04-01T05:44:45;7.05;;;5.43;;
12467;SDS011;57850;52.922;6.256;2023-04-01T05:47:11;7.20;;;5.47;;
12467;SDS011;57850;52.922;6.256;2023-04-01T05:49:39;7.57;;;5.50;;
12467;SDS011;57850;52.922;6.256;2023-04-01T05:52:06;8.57;;;5.40;;
12467;SDS011;57850;52.922;6.256;2023-04-01T05:54:32;7.05;;;5.53;;
12467;SDS011;57850;52.922;6.256;2023-04-01T05:56:59;7.40;;;5.70;;
12467;SDS011;57850;52.922;6.256;2023-04-01T05:59:26;7.00;;;5.68;;
12467;SDS011;57850;52.922;6.256;2023-04-01T06:01:53;6.45;;;5.72;;
12467;SDS011;57850;52.922;6.256;2023-04-01T06:04:19;7.38;;;6.18;;
12467;SDS011;57850;52.922;6.256;2023-04-01T06:06:48;7.28;;;6.07;;
12467;SDS011;57850;52.922;6.256;2023-04-01T06:09:15;8.85;;;6.97;;
12467;SDS011;57850;52.922;6.256;2023-04-01T06:11:46;9.27;;;6.65;;
12467;SDS011;57850;52.922;6.256;2023-04-01T06:14:26;7.13;;;5.95;;
12467;SDS011;57850;52.922;6.256;2023-04-01T06:17:05;7.93;;;7.00;;
12467;SDS011;57850;52.922;6.256;2023-04-01T06:19:47;8.75;;;6.70;;
12467;SDS011;57850;52.922;6.256;2023-04-01T06:25:21;8.02;;;6.72;;
12467;SDS011;57850;52.922;6.256;2023-04-01T06:31:10;8.20;;;6.00;;
12467;SDS011;57850;52.922;6.256;2023-04-01T06:33:49;6.75;;;6.00;;
12467;SDS011;57850;52.922;6.256;2023-04-01T06:36:43;6.85;;;5.93;;
12467;SDS011;57850;52.922;6.256;2023-04-01T06:39:25;7.05;;;6.32;;
12467;SDS011;57850;52.922;6.256;2023-04-01T06:42:10;7.90;;;6.57;;
12467;SDS011;57850;52.922;6.256;2023-04-01T06:44:44;7.78;;;6.40;;
12467;SDS011;57850;52.922;6.256;2023-04-01T06:47:26;7.50;;;6.00;;
12467;SDS011;57850;52.922;6.256;2023-04-01T06:50:04;7.07;;;5.55;;
12467;SDS011;57850;52.922;6.256;2023-04-01T06:52:40;8.73;;;5.90;;
12467;SDS011;57850;52.922;6.256;2023-04-01T06:55:23;6.47;;;5.38;;
12467;SDS011;57850;52.922;6.256;2023-04-01T06:57:54;5.85;;;5.25;;
12467;SDS011;57850;52.922;6.256;2023-04-01T07:00:25;5.70;;;4.82;;
12467;SDS011;57850;52.922;6.256;2023-04-01T07:02:57;5.72;;;5.15;;
12467;SDS011;57850;52.922;6.256;2023-04-01T07:05:31;5.50;;;4.53;;
12467;SDS011;57850;52.922;6.256;2023-04-01T07:08:00;6.25;;;5.38;;
12467;SDS011;57850;52.922;6.256;2023-04-01T07:10:32;4.85;;;4.35;;
12467;SDS011;57850;52.922;6.256;2023-04-01T07:13:04;4.60;;;4.20;;
12467;SDS011;57850;52.922;6.256;2023-04-01T07:15:36;4.65;;;3.83;;
12467;SDS011;57850;52.922;6.256;2023-04-01T07:18:09;4.70;;;3.70;;
12467;SDS011;57850;52.922;6.256;2023-04-01T07:20:41;3.70;;;3.40;;
12467;SDS011;57850;52.922;6.256;2023-04-01T07:23:10;3.60;;;3.30;;
12467;SDS011;57850;52.922;6.256;2023-04-01T07:25:47;4.00;;;3.60;;
12467;SDS011;57850;52.922;6.256;2023-04-01T07:28:17;3.90;;;3.60;;
12467;SDS011;57850;52.922;6.256;2023-04-01T07:30:46;6.95;;;4.03;;
12467;SDS011;57850;52.922;6.256;2023-04-01T07:33:25;5.15;;;3.97;;
12467;SDS011;57850;52.922;6.256;2023-04-01T07:36:00;6.03;;;5.13;;
12467;SDS011;57850;52.922;6.256;2023-04-01T07:38:34;6.57;;;5.60;;
12467;SDS011;57850;52.922;6.256;2023-04-01T07:41:14;7.15;;;5.63;;
12467;SDS011;57850;52.922;6.256;2023-04-01T07:43:55;6.90;;;6.20;;
12467;SDS011;57850;52.922;6.256;2023-04-01T07:46:35;9.80;;;7.28;;
12467;SDS011;57850;52.922;6.256;2023-04-01T07:49:22;8.20;;;7.30;;
12467;SDS011;57850;52.922;6.256;2023-04-01T07:51:58;8.07;;;7.05;;
12467;SDS011;57850;52.922;6.256;2023-04-01T07:54:31;10.13;;;7.68;;
12467;SDS011;57850;52.922;6.256;2023-04-01T07:57:07;16.17;;;14.73;;
12467;SDS011;57850;52.922;6.256;2023-04-01T07:59:38;11.32;;;9.15;;
12467;SDS011;57850;52.922;6.256;2023-04-01T08:02:13;9.95;;;8.35;;
12467;SDS011;57850;52.922;6.256;2023-04-01T08:04:52;8.63;;;7.72;;
12467;SDS011;57850;52.922;6.256;2023-04-01T08:07:27;10.13;;;8.80;;
12467;SDS011;57850;52.922;6.256;2023-04-01T08:10:04;10.07;;;8.43;;
12467;SDS011;57850;52.922;6.256;2023-04-01T08:12:45;10.32;;;9.05;;
12467;SDS011;57850;52.922;6.256;2023-04-01T08:15:20;11.68;;;9.57;;
12467;SDS011;57850;52.922;6.256;2023-04-01T08:17:54;13.25;;;10.05;;
12467;SDS011;57850;52.922;6.256;2023-04-01T08:20:32;11.45;;;9.70;;
12467;SDS011;57850;52.922;6.256;2023-04-01T08:23:04;11.57;;;9.50;;
12467;SDS011;57850;52.922;6.256;2023-04-01T08:25:37;11.77;;;9.40;;
12467;SDS011;57850;52.922;6.256;2023-04-01T08:28:11;11.23;;;9.68;;
12467;SDS011;57850;52.922;6.256;2023-04-01T08:30:43;12.60;;;10.75;;
12467;SDS011;57850;52.922;6.256;2023-04-01T08:33:15;13.45;;;9.82;;
12467;SDS011;57850;52.922;6.256;2023-04-01T08:35:46;12.75;;;10.20;;
12467;SDS011;57850;52.922;6.256;2023-04-01T08:38:17;10.85;;;8.95;;
12467;SDS011;57850;52.922;6.256;2023-04-01T08:40:58;10.95;;;9.82;;
12467;SDS011;57850;52.922;6.256;2023-04-01T08:43:36;11.18;;;9.98;;
12467;SDS011;57850;52.922;6.256;2023-04-01T08:49:27;12.50;;;10.57;;
12467;SDS011;57850;52.922;6.256;2023-04-01T08:55:02;12.88;;;11.15;;
12467;SDS011;57850;52.922;6.256;2023-04-01T08:57:45;14.25;;;11.35;;
12467;SDS011;57850;52.922;6.256;2023-04-01T09:00:24;13.95;;;11.77;;
12467;SDS011;57850;52.922;6.256;2023-04-01T09:03:04;15.70;;;12.05;;
12467;SDS011;57850;52.922;6.256;2023-04-01T09:05:48;15.15;;;12.77;;
12467;SDS011;57850;52.922;6.256;2023-04-01T09:08:43;14.10;;;12.27;;
12467;SDS011;57850;52.922;6.256;2023-04-01T09:11:29;14.82;;;12.13;;
12467;SDS011;57850;52.922;6.256;2023-04-01T09:17:12;14.48;;;12.05;;
12467;SDS011;57850;52.922;6.256;2023-04-01T09:19:57;15.48;;;12.68;;
12467;SDS011;57850;52.922;6.256;2023-04-01T09:22:48;13.98;;;11.80;;
12467;SDS011;57850;52.922;6.256;2023-04-01T09:25:44;14.73;;;11.95;;
12467;SDS011;57850;52.922;6.256;2023-04-01T09:28:18;13.63;;;11.55;;
12467;SDS011;57850;52.922;6.256;2023-04-01T09:30:48;15.75;;;12.32;;
12467;SDS011;57850;52.922;6.256;2023-04-01T09:36:45;12.82;;;10.60;;
12467;SDS011;57850;52.922;6.256;2023-04-01T09:39:19;14.13;;;11.52;;
12467;SDS011;57850;52.922;6.256;2023-04-01T09:42:06;14.07;;;11.63;;
12467;SDS011;57850;52.922;6.256;2023-04-01T09:44:42;16.90;;;11.48;;
12467;SDS011;57850;52.922;6.256;2023-04-01T09:47:23;13.00;;;10.82;;
12467;SDS011;57850;52.922;6.256;2023-04-01T09:50:24;13.77;;;10.35;;
12467;SDS011;57850;52.922;6.256;2023-04-01T09:53:03;13.13;;;10.50;;
12467;SDS011;57850;52.922;6.256;2023-04-01T09:55:53;13.30;;;11.35;;
12467;SDS011;57850;52.922;6.256;2023-04-01T09:58:45;11.50;;;10.23;;
12467;SDS011;57850;52.922;6.256;2023-04-01T10:01:36;11.93;;;10.52;;
12467;SDS011;57850;52.922;6.256;2023-04-01T10:13:36;15.18;;;11.73;;
12467;SDS011;57850;52.922;6.256;2023-04-01T10:16:26;13.07;;;11.13;;
12467;SDS011;57850;52.922;6.256;2023-04-01T10:19:21;14.00;;;10.85;;
12467;SDS011;57850;52.922;6.256;2023-04-01T10:22:12;11.57;;;10.38;;
12467;SDS011;57850;52.922;6.256;2023-04-01T10:24:58;10.93;;;9.73;;
12467;SDS011;57850;52.922;6.256;2023-04-01T10:27:46;11.05;;;9.10;;
12467;SDS011;57850;52.922;6.256;2023-04-01T10:33:47;10.95;;;9.80;;
12467;SDS011;57850;52.922;6.256;2023-04-01T10:36:48;12.55;;;11.05;;
12467;SDS011;57850;52.922;6.256;2023-04-01T10:39:33;8.77;;;7.78;;
12467;SDS011;57850;52.922;6.256;2023-04-01T10:45:27;5.82;;;4.60;;
12467;SDS011;57850;52.922;6.256;2023-04-01T10:48:31;5.80;;;5.25;;
12467;SDS011;57850;52.922;6.256;2023-04-01T10:54:43;6.90;;;3.95;;
12467;SDS011;57850;52.922;6.256;2023-04-01T10:57:40;5.47;;;3.83;;
12467;SDS011;57850;52.922;6.256;2023-04-01T11:06:55;4.93;;;4.43;;
12467;SDS011;57850;52.922;6.256;2023-04-01T11:10:06;5.82;;;4.68;;
12467;SDS011;57850;52.922;6.256;2023-04-01T11:13:02;5.95;;;5.07;;
12467;SDS011;57850;52.922;6.256;2023-04-01T11:15:50;5.57;;;4.97;;
12467;SDS011;57850;52.922;6.256;2023-04-01T11:19:02;6.32;;;5.20;;
12467;SDS011;57850;52.922;6.256;2023-04-01T11:24:47;6.72;;;4.95;;
12467;SDS011;57850;52.922;6.256;2023-04-01T11:27:37;6.50;;;5.90;;
12467;SDS011;57850;52.922;6.256;2023-04-01T11:33:22;5.60;;;5.10;;
12467;SDS011;57850;52.922;6.256;2023-04-01T11:36:07;5.50;;;4.75;;
12467;SDS011;57850;52.922;6.256;2023-04-01T11:38:57;4.93;;;4.22;;
12467;SDS011;57850;52.922;6.256;2023-04-01T11:41:33;4.35;;;3.95;;
12467;SDS011;57850;52.922;6.256;2023-04-01T11:44:10;4.75;;;4.22;;
12467;SDS011;57850;52.922;6.256;2023-04-01T11:46:44;4.50;;;4.10;;
12467;SDS011;57850;52.922;6.256;2023-04-01T11:49:25;4.28;;;3.88;;
12467;SDS011;57850;52.922;6.256;2023-04-01T11:52:05;4.25;;;3.85;;
12467;SDS011;57850;52.922;6.256;2023-04-01T12:00:43;4.10;;;3.50;;
12467;SDS011;57850;52.922;6.256;2023-04-01T12:03:28;3.25;;;2.72;;
12467;SDS011;57850;52.922;6.256;2023-04-01T12:06:08;3.55;;;3.08;;
12467;SDS011;57850;52.922;6.256;2023-04-01T12:08:44;3.75;;;3.10;;
12467;SDS011;57850;52.922;6.256;2023-04-01T12:11:22;4.13;;;3.72;;
12467;SDS011;57850;52.922;6.256;2023-04-01T12:13:56;3.92;;;3.47;;
12467;SDS011;57850;52.922;6.256;2023-04-01T12:16:34;3.65;;;3.08;;
12467;SDS011;57850;52.922;6.256;2023-04-01T12:19:09;3.42;;;3.13;;
12467;SDS011;57850;52.922;6.256;2023-04-01T12:21:45;4.00;;;3.22;;
12467;SDS011;57850;52.922;6.256;2023-04-01T12:24:42;3.55;;;3.25;;
12467;SDS011;57850;52.922;6.256;2023-04-01T12:27:29;4.18;;;3.03;;
12467;SDS011;57850;52.922;6.256;2023-04-01T12:35:55;3.92;;;3.58;;
12467;SDS011;57850;52.922;6.256;2023-04-01T12:38:35;4.18;;;3.33;;
12467;SDS011;57850;52.922;6.256;2023-04-01T12:41:13;3.53;;;3.22;;
12467;SDS011;57850;52.922;6.256;2023-04-01T12:43:59;3.22;;;3.00;;
12467;SDS011;57850;52.922;6.256;2023-04-01T12:46:54;3.22;;;2.92;;
12467;SDS011;57850;52.922;6.256;2023-04-01T12:49:54;3.35;;;3.05;;
12467;SDS011;57850;52.922;6.256;2023-04-01T12:52:30;5.07;;;3.55;;
12467;SDS011;57850;52.922;6.256;2023-04-01T12:55:15;3.92;;;3.53;;
12467;SDS011;57850;52.922;6.256;2023-04-01T13:01:27;3.38;;;3.08;;
12467;SDS011;57850;52.922;6.256;2023-04-01T13:07:16;3.60;;;3.13;;
12467;SDS011;57850;52.922;6.256;2023-04-01T13:10:09;3.05;;;2.75;;
12467;SDS011;57850;52.922;6.256;2023-04-01T13:12:52;2.53;;;2.33;;
12467;SDS011;57850;52.922;6.256;2023-04-01T13:15:28;2.70;;;2.50;;
12467;SDS011;57850;52.922;6.256;2023-04-01T13:18:06;2.92;;;2.63;;
12467;SDS011;57850;52.922;6.256;2023-04-01T13:20:48;2.60;;;2.40;;
12467;SDS011;57850;52.922;6.256;2023-04-01T13:23:32;3.20;;;2.90;;
12467;SDS011;57850;52.922;6.256;2023-04-01T13:26:07;2.75;;;2.55;;
12467;SDS011;57850;52.922;6.256;2023-04-01T13:28:43;2.88;;;2.60;;
12467;SDS011;57850;52.922;6.256;2023-04-01T13:31:23;4.15;;;3.10;;
12467;SDS011;57850;52.922;6.256;2023-04-01T13:34:26;6.13;;;3.15;;
12467;SDS011;57850;52.922;6.256;2023-04-01T13:37:08;3.42;;;2.85;;
12467;SDS011;57850;52.922;6.256;2023-04-01T13:39:50;3.30;;;3.05;;
12467;SDS011;57850;52.922;6.256;2023-04-01T13:42:28;3.25;;;2.95;;
12467;SDS011;57850;52.922;6.256;2023-04-01T13:45:02;3.53;;;3.22;;
12467;SDS011;57850;52.922;6.256;2023-04-01T13:47:53;3.17;;;2.88;;
12467;SDS011;57850;52.922;6.256;2023-04-01T13:50:47;3.40;;;3.10;;
12467;SDS011;57850;52.922;6.256;2023-04-01T13:56:38;3.20;;;2.90;;
12467;SDS011;57850;52.922;6.256;2023-04-01T13:59:13;3.30;;;3.00;;
12467;SDS011;57850;52.922;6.256;2023-04-01T14:01:54;5.18;;;3.10;;
12467;SDS011;57850;52.922;6.256;2023-04-01T14:04:39;4.47;;;3.38;;
12467;SDS011;57850;52.922;6.256;2023-04-01T14:07:25;3.03;;;2.72;;
12467;SDS011;57850;52.922;6.256;2023-04-01T14:10:13;3.13;;;2.88;;
12467;SDS011;57850;52.922;6.256;2023-04-01T14:12:47;2.92;;;2.72;;
12467;SDS011;57850;52.922;6.256;2023-04-01T14:15:28;3.85;;;3.10;;
12467;SDS011;57850;52.922;6.256;2023-04-01T14:18:11;3.05;;;2.65;;
12467;SDS011;57850;52.922;6.256;2023-04-01T14:21:03;3.00;;;2.67;;
12467;SDS011;57850;52.922;6.256;2023-04-01T14:23:49;5.47;;;2.67;;
12467;SDS011;57850;52.922;6.256;2023-04-01T14:26:52;2.88;;;2.63;;
12467;SDS011;57850;52.922;6.256;2023-04-01T14:29:29;2.47;;;2.15;;
12467;SDS011;57850;52.922;6.256;2023-04-01T14:32:06;2.13;;;2.03;;
12467;SDS011;57850;52.922;6.256;2023-04-01T14:34:46;2.28;;;2.08;;
12467;SDS011;57850;52.922;6.256;2023-04-01T14:37:31;2.53;;;2.33;;
12467;SDS011;57850;52.922;6.256;2023-04-01T14:40:28;2.60;;;2.22;;
12467;SDS011;57850;52.922;6.256;2023-04-01T14:43:18;3.65;;;2.47;;
12467;SDS011;57850;52.922;6.256;2023-04-01T14:46:09;2.47;;;2.28;;
12467;SDS011;57850;52.922;6.256;2023-04-01T14:48:51;2.20;;;2.10;;
12467;SDS011;57850;52.922;6.256;2023-04-01T14:51:22;2.22;;;2.03;;
12467;SDS011;57850;52.922;6.256;2023-04-01T14:53:59;2.83;;;2.58;;
12467;SDS011;57850;52.922;6.256;2023-04-01T14:56:39;2.70;;;2.47;;
12467;SDS011;57850;52.922;6.256;2023-04-01T14:59:09;2.50;;;2.30;;
12467;SDS011;57850;52.922;6.256;2023-04-01T15:01:41;2.67;;;2.47;;
12467;SDS011;57850;52.922;6.256;2023-04-01T15:04:19;2.30;;;2.20;;
12467;SDS011;57850;52.922;6.256;2023-04-01T15:07:01;2.63;;;2.42;;
12467;SDS011;57850;52.922;6.256;2023-04-01T15:09:44;2.55;;;2.35;;
12467;SDS011;57850;52.922;6.256;2023-04-01T15:12:25;2.97;;;2.38;;
12467;SDS011;57850;52.922;6.256;2023-04-01T15:17:54;2.67;;;2.47;;
12467;SDS011;57850;52.922;6.256;2023-04-01T15:20:35;3.03;;;2.72;;
12467;SDS011;57850;52.922;6.256;2023-04-01T15:23:17;2.97;;;2.60;;
12467;SDS011;57850;52.922;6.256;2023-04-01T15:25:59;2.72;;;2.47;;
12467;SDS011;57850;52.922;6.256;2023-04-01T15:28:41;2.67;;;2.47;;
12467;SDS011;57850;52.922;6.256;2023-04-01T15:31:19;2.40;;;2.20;;
12467;SDS011;57850;52.922;6.256;2023-04-01T15:33:55;2.80;;;2.60;;
12467;SDS011;57850;52.922;6.256;2023-04-01T15:36:43;2.72;;;2.53;;
12467;SDS011;57850;52.922;6.256;2023-04-01T15:39:13;2.88;;;2.67;;
12467;SDS011;57850;52.922;6.256;2023-04-01T15:41:50;2.88;;;2.67;;
12467;SDS011;57850;52.922;6.256;2023-04-01T15:44:34;2.70;;;2.50;;
12467;SDS011;57850;52.922;6.256;2023-04-01T15:47:23;2.50;;;2.10;;
12467;SDS011;57850;52.922;6.256;2023-04-01T15:50:02;3.05;;;2.55;;
12467;SDS011;57850;52.922;6.256;2023-04-01T15:52:48;3.53;;;2.20;;
12467;SDS011;57850;52.922;6.256;2023-04-01T15:55:24;2.50;;;2.30;;
12467;SDS011;57850;52.922;6.256;2023-04-01T15:58:02;2.78;;;2.58;;
12467;SDS011;57850;52.922;6.256;2023-04-01T16:00:46;2.40;;;2.20;;
12467;SDS011;57850;52.922;6.256;2023-04-01T16:03:29;3.20;;;2.08;;
12467;SDS011;57850;52.922;6.256;2023-04-01T16:06:10;2.70;;;2.50;;
12467;SDS011;57850;52.922;6.256;2023-04-01T16:08:53;2.90;;;2.60;;
12467;SDS011;57850;52.922;6.256;2023-04-01T16:11:39;3.08;;;2.88;;
12467;SDS011;57850;52.922;6.256;2023-04-01T16:14:20;2.92;;;2.72;;
12467;SDS011;57850;52.922;6.256;2023-04-01T16:17:05;3.10;;;2.80;;
12467;SDS011;57850;52.922;6.256;2023-04-01T16:19:50;3.35;;;2.70;;
12467;SDS011;57850;52.922;6.256;2023-04-01T16:22:20;3.47;;;3.17;;
12467;SDS011;57850;52.922;6.256;2023-04-01T16:24:53;3.75;;;3.45;;
12467;SDS011;57850;52.922;6.256;2023-04-01T16:27:27;4.70;;;3.10;;
12467;SDS011;57850;52.922;6.256;2023-04-01T16:30:03;4.63;;;3.38;;
12467;SDS011;57850;52.922;6.256;2023-04-01T16:32:53;3.38;;;3.03;;
12467;SDS011;57850;52.922;6.256;2023-04-01T16:35:26;4.45;;;3.45;;
12467;SDS011;57850;52.922;6.256;2023-04-01T16:38:02;4.35;;;3.13;;
12467;SDS011;57850;52.922;6.256;2023-04-01T16:40:37;4.43;;;3.58;;
12467;SDS011;57850;52.922;6.256;2023-04-01T16:43:14;4.30;;;3.75;;
12467;SDS011;57850;52.922;6.256;2023-04-01T16:45:53;3.40;;;3.10;;
12467;SDS011;57850;52.922;6.256;2023-04-01T16:48:30;3.97;;;3.28;;
12467;SDS011;57850;52.922;6.256;2023-04-01T16:51:12;3.88;;;3.50;;
12467;SDS011;57850;52.922;6.256;2023-04-01T16:53:42;3.40;;;3.10;;